createdAt,value
2022-08-07T00:02:37.930Z,0.20
2022-08-07T00:05:01.694Z,0.20
2022-08-07T00:07:40.806Z,0.20
2022-08-07T00:10:26.809Z,0.20
2022-08-07T00:13:00.920Z,0.20
2022-08-07T00:15:36.127Z,0.20
2022-08-07T00:18:06.347Z,0.20
2022-08-07T00:20:35.429Z,0.30
2022-08-07T00:23:03.193Z,0.20
2022-08-07T00:25:37.201Z,0.20
2022-08-07T00:28:08.932Z,0.20
2022-08-07T00:30:39.684Z,0.10
2022-08-07T00:33:08.294Z,0.20
2022-08-07T00:35:36.577Z,0.20
2022-08-07T00:38:04.625Z,0.20
2022-08-07T00:40:40.061Z,0.20
2022-08-07T00:43:09.974Z,0.20
2022-08-07T00:45:40.258Z,0.20
2022-08-07T00:48:10.852Z,0.20
2022-08-07T00:50:51.331Z,0.20
2022-08-07T00:53:20.223Z,0.20
2022-08-07T00:56:02.646Z,0.20
2022-08-07T00:58:32.578Z,0.20
2022-08-07T01:01:02.008Z,0.28
2022-08-07T01:03:56.479Z,0.20
2022-08-07T01:06:17.250Z,0.20
2022-08-07T01:08:53.142Z,0.20
2022-08-07T01:12:09.810Z,0.15
2022-08-07T01:14:09.040Z,0.20
2022-08-07T01:16:38.185Z,0.20
2022-08-07T01:19:18.245Z,0.20
2022-08-07T01:21:49.955Z,0.20
2022-08-07T01:24:22.471Z,0.20
2022-08-07T01:26:52.731Z,0.20
2022-08-07T01:29:24.000Z,0.20
2022-08-07T01:31:59.294Z,0.20
2022-08-07T01:34:31.391Z,0.20
2022-08-07T01:37:02.994Z,0.20
2022-08-07T01:39:40.418Z,0.10
2022-08-07T01:42:38.411Z,0.20
2022-08-07T01:45:18.110Z,0.20
2022-08-07T01:48:19.230Z,0.22
2022-08-07T01:50:38.081Z,0.20
2022-08-07T01:53:20.870Z,0.20
2022-08-07T01:55:59.257Z,0.20
2022-08-07T01:58:45.235Z,0.20
2022-08-07T02:01:25.552Z,0.20
2022-08-07T02:04:07.402Z,0.20
2022-08-07T02:06:36.664Z,0.20
2022-08-07T02:09:11.713Z,0.20
2022-08-07T02:12:03.361Z,0.20
2022-08-07T02:14:40.871Z,0.20
2022-08-07T02:17:16.673Z,0.20
2022-08-07T02:20:05.510Z,0.20
2022-08-07T02:22:38.416Z,0.20
2022-08-07T02:25:17.446Z,0.20
2022-08-07T02:27:56.421Z,0.30
2022-08-07T02:30:24.778Z,0.13
2022-08-07T02:33:03.803Z,0.20
2022-08-07T02:36:29.363Z,0.20
2022-08-07T02:38:31.751Z,0.20
2022-08-07T02:41:05.391Z,0.20
2022-08-07T02:43:38.896Z,0.20
2022-08-07T02:46:07.638Z,0.20
2022-08-07T02:48:36.780Z,0.20
2022-08-07T02:51:28.755Z,0.20
2022-08-07T02:53:57.264Z,0.20
2022-08-07T02:56:28.540Z,0.22
2022-08-07T02:59:01.503Z,0.20
2022-08-07T03:01:35.584Z,0.20
2022-08-07T03:04:07.840Z,0.28
2022-08-07T03:06:41.390Z,0.20
2022-08-07T03:09:11.032Z,0.20
2022-08-07T03:11:52.429Z,0.20
2022-08-07T03:14:29.041Z,0.20
2022-08-07T03:16:58.636Z,0.20
2022-08-07T03:19:28.856Z,0.20
2022-08-07T03:21:58.800Z,0.20
2022-08-07T03:24:28.152Z,0.20
2022-08-07T03:27:03.682Z,0.20
2022-08-07T03:29:46.244Z,0.20
2022-08-07T03:32:21.846Z,0.20
2022-08-07T03:35:01.047Z,0.20
2022-08-07T03:37:53.224Z,0.20
2022-08-07T03:40:24.426Z,0.30
2022-08-07T03:43:01.603Z,0.20
2022-08-07T03:45:33.337Z,0.20
2022-08-07T03:48:11.777Z,0.22
2022-08-07T03:50:40.099Z,0.20
2022-08-07T03:53:19.922Z,0.20
2022-08-07T03:56:08.779Z,0.20
2022-08-07T03:59:10.115Z,0.20
2022-08-07T04:01:36.986Z,0.22
2022-08-07T04:04:05.088Z,0.20
2022-08-07T04:06:37.722Z,0.20
2022-08-07T04:09:15.948Z,0.20
2022-08-07T04:12:26.648Z,0.20
2022-08-07T04:14:43.799Z,0.20
2022-08-07T04:17:20.851Z,0.20
2022-08-07T04:20:06.323Z,0.30
2022-08-07T04:22:37.071Z,0.20
2022-08-07T04:25:11.851Z,0.20
2022-08-07T04:27:44.124Z,0.20
2022-08-07T04:30:21.089Z,0.20
2022-08-07T04:33:10.143Z,0.20
2022-08-07T04:35:50.554Z,0.30
2022-08-07T04:38:22.841Z,0.20
2022-08-07T04:40:52.861Z,0.20
2022-08-07T04:44:12.928Z,0.20
2022-08-07T04:46:29.419Z,0.20
2022-08-07T04:49:07.457Z,0.20
2022-08-07T04:51:52.065Z,0.20
2022-08-07T04:54:30.085Z,0.20
2022-08-07T04:58:16.701Z,0.20
2022-08-07T05:00:09.563Z,0.20
2022-08-07T05:02:48.726Z,0.20
2022-08-07T05:05:52.858Z,0.20
2022-08-07T05:08:13.682Z,0.20
2022-08-07T05:10:44.301Z,0.20
2022-08-07T05:14:54.300Z,0.20
2022-08-07T05:16:07.056Z,0.20
2022-08-07T05:18:37.596Z,0.20
2022-08-07T05:21:09.747Z,0.20
2022-08-07T05:23:40.816Z,0.20
2022-08-07T05:26:18.863Z,0.20
2022-08-07T05:28:56.065Z,0.20
2022-08-07T05:31:34.831Z,0.20
2022-08-07T05:34:11.067Z,0.20
2022-08-07T05:36:43.173Z,0.10
2022-08-07T05:40:06.618Z,0.20
2022-08-07T05:42:12.161Z,0.20
2022-08-07T05:44:46.396Z,0.13
2022-08-07T05:47:19.902Z,0.20
2022-08-07T05:49:52.166Z,0.20
2022-08-07T05:52:30.035Z,0.20
2022-08-07T05:55:10.329Z,0.20
2022-08-07T05:57:42.420Z,0.20
2022-08-07T06:00:16.178Z,0.20
2022-08-07T06:02:52.616Z,0.20
2022-08-07T06:05:28.429Z,0.20
2022-08-07T06:08:29.998Z,0.20
2022-08-07T06:10:51.380Z,0.20
2022-08-07T06:13:31.532Z,0.20
2022-08-07T06:16:10.084Z,0.20
2022-08-07T06:18:43.087Z,0.20
2022-08-07T06:22:16.648Z,0.20
2022-08-07T06:24:46.200Z,0.20
2022-08-07T06:26:54.028Z,0.20
2022-08-07T06:29:27.027Z,0.15
2022-08-07T06:31:56.661Z,0.20
2022-08-07T06:34:25.400Z,0.10
2022-08-07T06:36:59.135Z,0.20
2022-08-07T06:40:13.471Z,0.20
2022-08-07T06:42:33.091Z,0.20
2022-08-07T06:45:30.024Z,0.20
2022-08-07T06:48:01.889Z,0.20
2022-08-07T06:50:38.894Z,0.10
2022-08-07T06:53:49.141Z,0.20
2022-08-07T06:56:02.305Z,0.30
2022-08-07T06:58:35.174Z,0.20
2022-08-07T07:01:08.489Z,0.20
2022-08-07T07:03:47.523Z,0.20
2022-08-07T07:06:26.078Z,0.15
2022-08-07T07:08:57.013Z,0.13
2022-08-07T07:12:07.607Z,0.10
2022-08-07T07:14:16.366Z,0.20
2022-08-07T07:16:51.195Z,0.10
2022-08-07T07:19:55.341Z,0.20
2022-08-07T07:22:35.955Z,0.20
2022-08-07T07:26:31.169Z,0.20
2022-08-07T07:27:55.707Z,0.20
2022-08-07T07:30:39.891Z,0.10
2022-08-07T07:33:09.034Z,0.10
2022-08-07T07:35:44.045Z,0.10
2022-08-07T07:38:28.022Z,0.10
2022-08-07T07:41:02.088Z,0.17
2022-08-07T07:43:47.716Z,0.10
2022-08-07T07:46:40.067Z,0.10
2022-08-07T07:50:33.945Z,0.10
2022-08-07T07:51:58.094Z,0.20
2022-08-07T07:54:27.267Z,0.13
2022-08-07T07:56:57.996Z,0.10
2022-08-07T07:59:51.788Z,0.10
2022-08-07T08:02:22.645Z,0.10
2022-08-07T08:05:04.124Z,0.10
2022-08-07T08:07:35.806Z,0.10
2022-08-07T08:10:38.130Z,0.10
2022-08-07T08:13:10.652Z,0.10
2022-08-07T08:15:57.417Z,0.20
2022-08-07T08:18:28.192Z,0.10
2022-08-07T08:20:56.882Z,0.20
2022-08-07T08:23:39.033Z,0.10
2022-08-07T08:26:21.718Z,0.10
2022-08-07T08:28:53.645Z,0.10
2022-08-07T08:31:58.349Z,0.10
2022-08-07T08:34:12.443Z,0.10
2022-08-07T08:36:57.837Z,0.10
2022-08-07T08:39:26.246Z,0.10
2022-08-07T08:42:12.722Z,0.10
2022-08-07T08:44:45.638Z,0.10
2022-08-07T08:47:19.592Z,0.10
2022-08-07T08:50:02.527Z,0.10
2022-08-07T08:52:35.973Z,0.00
2022-08-07T08:55:21.140Z,0.00
2022-08-07T08:58:01.917Z,0.00
2022-08-07T09:00:36.795Z,0.00
2022-08-07T09:03:16.130Z,0.00
2022-08-07T09:05:49.439Z,0.03
2022-08-07T09:08:28.654Z,0.00
2022-08-07T09:11:01.345Z,0.00
2022-08-07T09:13:36.958Z,0.00
2022-08-07T09:16:23.066Z,0.00
2022-08-07T09:19:03.567Z,0.10
2022-08-07T09:21:57.838Z,0.10
2022-08-07T09:24:59.428Z,0.10
2022-08-07T09:27:23.929Z,0.05
2022-08-07T09:30:06.239Z,0.10
2022-08-07T09:32:50.303Z,0.17
2022-08-07T09:36:04.274Z,0.10
2022-08-07T09:38:14.605Z,0.20
2022-08-07T09:41:05.848Z,0.13
2022-08-07T09:44:05.705Z,0.20
2022-08-07T09:47:50.041Z,0.20
2022-08-07T09:50:01.223Z,0.15
2022-08-07T09:52:34.685Z,0.10
2022-08-07T09:55:06.046Z,0.10
2022-08-07T09:57:56.882Z,0.10
2022-08-07T10:00:31.881Z,0.10
2022-08-07T10:04:06.048Z,0.10
2022-08-07T10:06:24.272Z,0.20
2022-08-07T10:09:05.039Z,0.13
2022-08-07T10:12:02.664Z,0.10
2022-08-07T10:14:42.682Z,0.20
2022-08-07T10:17:22.595Z,0.20
2022-08-07T10:20:02.059Z,0.20
2022-08-07T10:22:37.372Z,0.20
2022-08-07T10:25:14.805Z,0.15
2022-08-07T10:28:03.292Z,0.10
2022-08-07T10:30:35.553Z,0.20
2022-08-07T10:33:17.460Z,0.10
2022-08-07T10:35:55.593Z,0.10
2022-08-07T10:38:48.045Z,0.10
2022-08-07T10:41:54.724Z,0.15
2022-08-07T10:44:13.155Z,0.17
2022-08-07T10:46:44.117Z,0.15
2022-08-07T10:49:15.756Z,0.20
2022-08-07T10:52:02.352Z,0.13
2022-08-07T10:54:53.433Z,0.10
2022-08-07T10:57:36.877Z,0.10
2022-08-07T11:00:08.785Z,0.20
2022-08-07T11:02:40.610Z,0.20
2022-08-07T11:05:18.940Z,0.10
2022-08-07T11:08:00.425Z,0.13
2022-08-07T11:10:33.727Z,0.10
2022-08-07T11:13:42.479Z,0.10
2022-08-07T11:16:00.929Z,0.10
2022-08-07T11:18:31.455Z,0.10
2022-08-07T11:21:03.638Z,0.15
2022-08-07T11:23:38.777Z,0.10
2022-08-07T11:26:11.189Z,0.10
2022-08-07T11:28:53.449Z,0.15
2022-08-07T11:31:25.918Z,0.10
2022-08-07T11:36:56.850Z,0.10
2022-08-07T11:39:59.877Z,0.10
2022-08-07T11:42:33.250Z,0.10
2022-08-07T11:45:14.059Z,0.10
2022-08-07T11:47:59.043Z,0.17
2022-08-07T11:50:36.350Z,0.20
2022-08-07T11:53:17.282Z,0.13
2022-08-07T11:56:25.568Z,0.13
2022-08-07T11:58:50.244Z,0.20
2022-08-07T12:01:27.267Z,0.20
2022-08-07T12:04:25.460Z,0.10
2022-08-07T12:06:59.068Z,0.10
2022-08-07T12:09:57.983Z,0.20
2022-08-07T12:12:36.527Z,0.10
2022-08-07T12:15:08.178Z,0.10
2022-08-07T12:18:03.075Z,0.10
2022-08-07T12:20:37.128Z,0.10
2022-08-07T12:23:15.965Z,0.20
2022-08-07T12:26:21.472Z,0.10
2022-08-07T12:28:45.070Z,0.10
2022-08-07T12:31:22.444Z,0.10
2022-08-07T12:34:00.611Z,0.10
2022-08-07T12:36:33.627Z,0.10
2022-08-07T12:39:03.289Z,0.10
2022-08-07T12:41:52.517Z,0.10
2022-08-07T12:44:21.475Z,0.10
2022-08-07T12:46:56.038Z,0.10
2022-08-07T12:49:44.328Z,0.10
2022-08-07T12:52:17.109Z,0.10
2022-08-07T12:54:54.697Z,0.10
2022-08-07T12:57:26.709Z,0.10
2022-08-07T13:00:16.396Z,0.10
2022-08-07T13:03:07.021Z,0.10
2022-08-07T13:06:02.757Z,0.10
2022-08-07T13:08:38.573Z,0.10
2022-08-07T13:11:17.001Z,0.20
2022-08-07T13:13:52.360Z,0.10
2022-08-07T13:16:25.591Z,0.10
2022-08-07T13:18:58.012Z,0.10
2022-08-07T13:21:37.154Z,0.10
2022-08-07T13:24:11.377Z,0.20
2022-08-07T13:26:41.786Z,0.10
2022-08-07T13:29:15.748Z,0.20
2022-08-07T13:31:57.707Z,0.10
2022-08-07T13:34:35.988Z,0.10
2022-08-07T13:37:11.041Z,0.10
2022-08-07T13:40:35.013Z,0.10
2022-08-07T13:42:40.106Z,0.10
2022-08-07T13:46:07.042Z,0.10
2022-08-07T13:48:06.959Z,0.10
2022-08-07T13:50:45.171Z,0.10
2022-08-07T13:53:55.211Z,0.10
2022-08-07T13:56:19.965Z,0.10
2022-08-07T13:59:05.780Z,0.10
2022-08-07T14:01:59.141Z,0.10
2022-08-07T14:04:36.085Z,0.10
2022-08-07T14:07:09.128Z,0.10
2022-08-07T14:10:12.052Z,0.17
2022-08-07T14:12:36.074Z,0.10
2022-08-07T14:15:13.174Z,0.10
2022-08-07T14:18:27.367Z,0.10
2022-08-07T14:20:40.107Z,0.20
2022-08-07T14:23:31.143Z,0.10
2022-08-07T14:26:04.909Z,0.10
2022-08-07T14:28:57.274Z,0.13
2022-08-07T14:31:24.916Z,0.10
2022-08-07T14:34:10.675Z,0.10
2022-08-07T14:36:38.931Z,0.10
2022-08-07T14:39:06.834Z,0.10
2022-08-07T14:42:19.546Z,0.10
2022-08-07T14:44:31.126Z,0.10
2022-08-07T14:47:08.746Z,0.10
2022-08-07T14:49:56.958Z,0.10
2022-08-07T14:52:28.810Z,0.10
2022-08-07T14:54:58.458Z,0.10
2022-08-07T14:57:54.697Z,0.10
2022-08-07T15:00:29.792Z,0.10
2022-08-07T15:02:58.881Z,0.10
2022-08-07T15:05:27.584Z,0.10
2022-08-07T15:07:58.985Z,0.10
2022-08-07T15:10:30.094Z,0.10
2022-08-07T15:13:00.733Z,0.20
2022-08-07T15:15:38.455Z,0.10
2022-08-07T15:18:14.125Z,0.10
2022-08-07T15:20:58.439Z,0.20
2022-08-07T15:25:02.339Z,0.10
2022-08-07T15:30:08.905Z,0.20
2022-08-07T15:32:07.438Z,0.10
2022-08-07T15:34:50.681Z,0.10
2022-08-07T15:37:27.884Z,0.13
2022-08-07T15:40:20.524Z,0.10
2022-08-07T15:43:05.434Z,0.10
2022-08-07T15:45:56.467Z,0.10
2022-08-07T15:51:17.114Z,0.20
2022-08-07T15:53:53.118Z,0.10
2022-08-07T15:56:24.245Z,0.10
2022-08-07T15:58:53.480Z,0.20
2022-08-07T16:01:39.288Z,0.10
2022-08-07T16:04:14.723Z,0.10
2022-08-07T16:06:44.469Z,0.17
2022-08-07T16:09:15.345Z,0.10
2022-08-07T16:12:04.420Z,0.10
2022-08-07T16:14:38.469Z,0.10
2022-08-07T16:18:00.739Z,0.10
2022-08-07T16:20:34.188Z,0.20
2022-08-07T16:23:25.268Z,0.10
2022-08-07T16:26:14.352Z,0.10
2022-08-07T16:30:06.877Z,0.10
2022-08-07T16:31:58.263Z,0.20
2022-08-07T16:34:33.798Z,0.10
2022-08-07T16:38:04.748Z,0.20
2022-08-07T16:40:28.641Z,0.17
2022-08-07T16:43:01.513Z,0.20
2022-08-07T16:46:40.968Z,0.10
2022-08-07T16:48:53.862Z,0.10
2022-08-07T16:51:51.852Z,0.20
2022-08-07T16:54:32.511Z,0.20
2022-08-07T16:57:15.449Z,0.20
2022-08-07T16:59:51.208Z,0.20
2022-08-07T17:02:51.121Z,0.10
2022-08-07T17:06:18.977Z,0.10
2022-08-07T17:09:04.305Z,0.13
2022-08-07T17:11:24.594Z,0.10
2022-08-07T17:14:17.864Z,0.10
2022-08-07T17:16:55.539Z,0.10
2022-08-07T17:20:00.669Z,0.20
2022-08-07T17:22:29.933Z,0.20
2022-08-07T17:25:10.175Z,0.20
2022-08-07T17:27:51.021Z,0.10
2022-08-07T17:30:26.516Z,0.10
2022-08-07T17:33:02.953Z,0.10
2022-08-07T17:35:54.721Z,0.10
2022-08-07T17:38:33.138Z,0.20
2022-08-07T17:42:01.107Z,0.17
2022-08-07T17:44:01.300Z,0.10
2022-08-07T17:46:36.935Z,0.20
2022-08-07T17:49:09.808Z,0.20
2022-08-07T17:52:00.110Z,0.20
2022-08-07T17:54:39.583Z,0.20
2022-08-07T17:57:25.228Z,0.20
2022-08-07T18:00:32.915Z,0.20
2022-08-07T18:03:01.566Z,0.17
2022-08-07T18:06:01.360Z,0.20
2022-08-07T18:08:31.342Z,0.10
2022-08-07T18:12:17.460Z,0.10
2022-08-07T18:14:01.477Z,0.20
2022-08-07T18:16:33.269Z,0.20
2022-08-07T18:21:11.697Z,0.20
2022-08-07T18:22:05.361Z,0.17
2022-08-07T18:24:37.587Z,0.17
2022-08-07T18:27:20.986Z,0.20
2022-08-07T18:30:04.547Z,0.10
2022-08-07T18:32:55.091Z,0.13
2022-08-07T18:35:51.492Z,0.10
2022-08-07T18:38:59.168Z,0.20
2022-08-07T18:41:20.721Z,0.20
2022-08-07T18:43:57.805Z,0.17
2022-08-07T18:46:32.923Z,0.10
2022-08-07T18:50:05.278Z,0.20
2022-08-07T18:52:52.865Z,0.10
2022-08-07T18:54:49.769Z,0.20
2022-08-07T18:57:31.031Z,0.15
2022-08-07T19:00:04.429Z,0.20
2022-08-07T19:03:00.158Z,0.20
2022-08-07T19:06:03.371Z,0.20
2022-08-07T19:08:19.928Z,0.20
2022-08-07T19:10:52.101Z,0.20
2022-08-07T19:13:24.173Z,0.20
2022-08-07T19:16:04.352Z,0.20
2022-08-07T19:18:49.386Z,0.20
2022-08-07T19:21:47.899Z,0.20
2022-08-07T19:24:30.683Z,0.20
2022-08-07T19:28:56.836Z,0.20
2022-08-07T19:31:00.217Z,0.20
2022-08-07T19:32:45.434Z,0.20
2022-08-07T19:35:17.883Z,0.17
2022-08-07T19:37:56.461Z,0.20
2022-08-07T19:40:31.904Z,0.20
2022-08-07T19:43:02.265Z,0.30
2022-08-07T19:46:06.266Z,0.20
2022-08-07T19:48:24.570Z,0.25
2022-08-07T19:50:54.366Z,0.20
2022-08-07T19:54:44.051Z,0.10
2022-08-07T19:58:03.554Z,0.20
2022-08-07T19:59:02.608Z,0.20
2022-08-07T20:01:52.370Z,0.20
2022-08-07T20:04:31.617Z,0.20
2022-08-07T20:07:09.168Z,0.22
2022-08-07T20:10:35.275Z,0.30
2022-08-07T20:12:34.739Z,0.10
2022-08-07T20:15:04.687Z,0.20
2022-08-07T20:17:38.837Z,0.20
2022-08-07T20:20:08.408Z,0.20
2022-08-07T20:22:41.486Z,0.20
2022-08-07T20:25:12.895Z,0.10
2022-08-07T20:27:58.122Z,0.17
2022-08-07T20:30:30.052Z,0.20
2022-08-07T20:32:58.863Z,0.20
2022-08-07T20:35:33.507Z,0.20
2022-08-07T20:38:02.703Z,0.20
2022-08-07T20:40:34.712Z,0.20
2022-08-07T20:43:09.494Z,0.20
2022-08-07T20:46:25.833Z,0.20
2022-08-07T20:48:33.899Z,0.20
2022-08-07T20:51:04.697Z,0.20
2022-08-07T20:54:04.819Z,0.22
2022-08-07T20:56:28.719Z,0.20
2022-08-07T20:58:59.255Z,0.20
2022-08-07T21:01:29.552Z,0.20
2022-08-07T21:04:21.854Z,0.20
2022-08-07T21:06:53.187Z,0.20
2022-08-07T21:09:24.642Z,0.20
2022-08-07T21:11:57.492Z,0.20
2022-08-07T21:14:33.039Z,0.25
2022-08-07T21:18:01.293Z,0.20
2022-08-07T21:20:05.309Z,0.20
2022-08-07T21:22:35.163Z,0.10
2022-08-07T21:25:12.107Z,0.20
2022-08-07T21:27:48.591Z,0.20
2022-08-07T21:30:24.364Z,0.20
2022-08-07T21:33:00.237Z,0.20
2022-08-07T21:35:34.734Z,0.20
2022-08-07T21:38:27.783Z,0.20
2022-08-07T21:41:00.410Z,0.20
2022-08-07T21:43:55.327Z,0.20
2022-08-07T21:46:32.287Z,0.20
2022-08-07T21:49:04.729Z,0.20
2022-08-07T21:51:51.029Z,0.20
2022-08-07T21:54:22.967Z,0.20
2022-08-07T21:57:02.112Z,0.20
2022-08-07T22:00:03.023Z,0.20
2022-08-07T22:02:24.412Z,0.20
2022-08-07T22:04:54.423Z,0.20
2022-08-07T22:07:31.763Z,0.20
2022-08-07T22:10:12.811Z,0.20
2022-08-07T22:12:45.432Z,0.20
2022-08-07T22:16:40.142Z,0.20
2022-08-07T22:18:04.165Z,0.20
2022-08-07T22:20:40.498Z,0.20
2022-08-07T22:23:15.727Z,0.20
2022-08-07T22:25:47.263Z,0.20
2022-08-07T22:28:31.233Z,0.20
2022-08-07T22:31:05.271Z,0.20
2022-08-07T22:33:52.879Z,0.20
2022-08-07T22:36:26.278Z,0.20
2022-08-07T22:38:56.354Z,0.20
2022-08-07T22:42:02.563Z,0.20
2022-08-07T22:44:18.547Z,0.20
2022-08-07T22:47:08.615Z,0.20
2022-08-07T22:49:51.762Z,0.20
2022-08-07T22:52:37.011Z,0.20
2022-08-07T22:55:23.498Z,0.17
2022-08-07T22:58:12.800Z,0.20
2022-08-07T23:00:49.539Z,0.20
2022-08-07T23:03:24.546Z,0.20
2022-08-07T23:06:08.405Z,0.20
2022-08-07T23:10:04.410Z,0.20
2022-08-07T23:11:59.257Z,0.20
2022-08-07T23:14:50.319Z,0.20
2022-08-07T23:17:34.148Z,0.20
2022-08-07T23:20:51.258Z,0.20
2022-08-07T23:24:04.135Z,0.20
2022-08-07T23:26:23.394Z,0.20
2022-08-07T23:29:43.110Z,0.20
2022-08-07T23:34:19.526Z,0.28
2022-08-07T23:35:01.716Z,0.20
2022-08-07T23:38:01.160Z,0.20
2022-08-07T23:40:35.961Z,0.30
2022-08-07T23:43:22.166Z,0.20
2022-08-07T23:46:03.502Z,0.22
2022-08-07T23:48:47.566Z,0.20
2022-08-07T23:53:05.615Z,0.20
2022-08-07T23:54:19.909Z,0.20
2022-08-07T23:57:04.190Z,0.30
